createdAt,value
2019-04-27T00:01:05.274Z,86.28
2019-04-27T00:03:44.821Z,86.47
2019-04-27T00:06:20.757Z,83.47
2019-04-27T00:08:51.012Z,79.42
2019-04-27T00:11:24.096Z,78.25
2019-04-27T00:13:53.590Z,84.28
2019-04-27T00:16:46.857Z,79.70
2019-04-27T00:19:31.869Z,75.35
2019-04-27T00:22:03.168Z,74.92
2019-04-27T00:24:33.553Z,78.37
2019-04-27T00:27:03.238Z,80.15
2019-04-27T00:29:33.176Z,82.02
2019-04-27T00:32:04.120Z,78.57
2019-04-27T00:34:33.838Z,74.55
2019-04-27T00:37:06.801Z,78.10
2019-04-27T00:39:36.897Z,83.37
2019-04-27T00:42:05.324Z,79.70
2019-04-27T00:44:34.123Z,82.55
2019-04-27T00:47:03.949Z,80.05
2019-04-27T00:49:32.897Z,80.40
2019-04-27T00:52:01.774Z,82.57
2019-04-27T00:54:30.195Z,76.33
2019-04-27T00:57:13.073Z,76.90
2019-04-27T00:59:59.395Z,82.37
2019-04-27T01:02:43.432Z,83.72
2019-04-27T01:05:13.615Z,85.05
2019-04-27T01:07:43.472Z,79.53
2019-04-27T01:12:42.998Z,83.07
2019-04-27T01:15:13.579Z,78.15
2019-04-27T01:17:41.897Z,77.55
2019-04-27T01:20:10.586Z,95.57
2019-04-27T01:22:39.249Z,90.12
2019-04-27T01:25:08.844Z,94.90
2019-04-27T01:27:42.193Z,86.00
2019-04-27T01:30:12.908Z,96.50
2019-04-27T01:32:41.378Z,92.82
2019-04-27T01:35:09.930Z,93.37
2019-04-27T01:37:38.770Z,102.40
2019-04-27T01:40:09.721Z,97.60
2019-04-27T01:42:39.500Z,98.95
2019-04-27T01:47:37.115Z,95.47
2019-04-27T01:50:08.719Z,96.82
2019-04-27T01:52:38.548Z,98.75
2019-04-27T01:55:08.623Z,105.37
2019-04-27T01:57:38.613Z,102.00
2019-04-27T02:00:19.258Z,93.33
2019-04-27T02:02:49.555Z,93.80
2019-04-27T02:05:35.606Z,90.92
2019-04-27T02:08:04.116Z,92.35
2019-04-27T02:10:32.782Z,99.50
2019-04-27T02:13:01.219Z,102.95
2019-04-27T02:15:29.919Z,101.87
2019-04-27T02:17:59.655Z,105.95
2019-04-27T02:20:30.000Z,115.97
2019-04-27T02:22:58.819Z,131.10
2019-04-27T02:25:29.337Z,128.12
2019-04-27T02:28:04.954Z,121.35
2019-04-27T02:30:46.730Z,129.95
2019-04-27T02:33:31.829Z,119.85
2019-04-27T02:36:00.589Z,139.05
2019-04-27T02:38:30.485Z,131.25
2019-04-27T02:43:49.724Z,109.52
2019-04-27T02:46:20.014Z,117.03
2019-04-27T02:48:58.601Z,122.07
2019-04-27T02:51:29.961Z,136.65
2019-04-27T02:54:00.561Z,138.07
2019-04-27T02:56:30.547Z,138.47
2019-04-27T02:58:59.782Z,126.60
2019-04-27T03:01:30.693Z,121.85
2019-04-27T03:04:00.330Z,122.22
2019-04-27T03:09:00.364Z,114.50
2019-04-27T03:11:30.803Z,112.08
2019-04-27T03:16:53.797Z,110.90
2019-04-27T03:19:32.363Z,113.00
2019-04-27T03:22:02.436Z,111.62
2019-04-27T03:24:49.754Z,101.80
2019-04-27T03:27:20.334Z,109.57
2019-04-27T03:29:49.878Z,105.00
2019-04-27T03:32:22.824Z,108.55
2019-04-27T03:34:52.356Z,103.53
2019-04-27T03:37:20.300Z,103.15
2019-04-27T03:42:20.763Z,99.77
2019-04-27T03:44:50.287Z,98.60
2019-04-27T03:47:19.754Z,92.02
2019-04-27T03:49:50.601Z,99.13
2019-04-27T03:54:50.490Z,92.00
2019-04-27T04:00:02.404Z,97.45
2019-04-27T04:02:31.071Z,93.95
2019-04-27T04:05:00.039Z,104.78
2019-04-27T04:07:30.137Z,100.18
2019-04-27T04:10:00.265Z,105.97
2019-04-27T04:12:46.770Z,108.20
2019-04-27T04:15:19.861Z,104.65
2019-04-27T04:17:49.524Z,93.33
2019-04-27T04:22:44.999Z,97.92
2019-04-27T04:25:13.517Z,85.62
2019-04-27T04:27:42.780Z,91.50
2019-04-27T04:30:12.332Z,94.90
2019-04-27T04:32:41.171Z,90.12
2019-04-27T04:35:21.763Z,86.85
2019-04-27T04:37:53.012Z,100.05
2019-04-27T04:40:23.172Z,93.45
2019-04-27T04:43:10.792Z,104.65
2019-04-27T04:45:52.460Z,105.17
2019-04-27T04:48:21.612Z,95.50
2019-04-27T04:50:50.347Z,101.43
2019-04-27T04:53:20.630Z,93.27
2019-04-27T04:55:49.050Z,94.75
2019-04-27T04:58:20.665Z,96.67
2019-04-27T05:00:49.988Z,97.25
2019-04-27T05:03:21.529Z,99.03
2019-04-27T05:05:49.910Z,96.45
2019-04-27T05:08:19.066Z,102.15
2019-04-27T05:10:49.678Z,92.27
2019-04-27T05:13:19.298Z,92.05
2019-04-27T05:15:48.732Z,94.10
2019-04-27T05:18:18.965Z,96.63
2019-04-27T05:20:52.302Z,102.47
2019-04-27T05:23:20.746Z,101.95
2019-04-27T05:25:49.413Z,100.40
2019-04-27T05:28:18.767Z,94.52
2019-04-27T05:30:48.909Z,99.17
2019-04-27T05:33:18.753Z,104.03
2019-04-27T05:35:49.174Z,98.13
2019-04-27T05:38:19.308Z,103.12
2019-04-27T05:40:49.716Z,100.15
2019-04-27T05:43:19.624Z,98.92
2019-04-27T05:46:09.969Z,96.45
2019-04-27T05:48:39.008Z,102.00
2019-04-27T05:51:09.194Z,104.83
2019-04-27T05:53:39.453Z,106.60
2019-04-27T05:56:09.473Z,101.70
2019-04-27T05:58:39.245Z,98.95
2019-04-27T06:01:09.581Z,88.83
2019-04-27T06:03:39.698Z,96.55
2019-04-27T06:08:39.260Z,94.32
2019-04-27T06:11:09.422Z,85.22
2019-04-27T06:13:39.261Z,88.60
2019-04-27T06:16:09.391Z,91.65
2019-04-27T06:18:39.201Z,85.40
2019-04-27T06:21:09.568Z,85.03
2019-04-27T06:23:39.092Z,87.27
2019-04-27T06:26:11.753Z,82.60
2019-04-27T06:28:40.434Z,77.92
2019-04-27T06:31:08.951Z,73.42
2019-04-27T06:33:38.994Z,76.95
2019-04-27T06:36:09.880Z,67.30
2019-04-27T06:38:39.359Z,72.87
2019-04-27T06:41:10.075Z,68.00
2019-04-27T06:46:06.436Z,65.50
2019-04-27T06:48:34.891Z,60.52
2019-04-27T06:51:05.650Z,59.08
2019-04-27T06:53:33.475Z,58.75
2019-04-27T06:56:01.911Z,59.63
2019-04-27T06:58:30.356Z,55.50
2019-04-27T07:00:59.513Z,60.00
2019-04-27T07:03:28.930Z,54.83
2019-04-27T07:05:58.808Z,52.70
2019-04-27T07:08:28.664Z,55.58
2019-04-27T07:10:58.861Z,53.73
2019-04-27T07:13:29.149Z,54.17
2019-04-27T07:18:25.539Z,51.70
2019-04-27T07:20:53.969Z,50.45
2019-04-27T07:23:22.544Z,55.58
2019-04-27T07:25:51.520Z,52.55
2019-04-27T07:28:19.960Z,50.35
2019-04-27T07:30:48.817Z,51.48
2019-04-27T07:33:18.636Z,50.08
2019-04-27T07:35:48.950Z,54.33
2019-04-27T07:40:45.154Z,42.90
2019-04-27T07:43:18.784Z,41.35
2019-04-27T07:45:49.383Z,40.03
2019-04-27T07:48:18.887Z,43.52
2019-04-27T07:50:48.653Z,39.97
2019-04-27T07:53:17.127Z,42.23
2019-04-27T07:55:45.551Z,39.27
2019-04-27T07:58:15.322Z,37.30
2019-04-27T08:00:43.752Z,42.53
2019-04-27T08:03:12.175Z,39.75
2019-04-27T08:05:40.653Z,36.28
2019-04-27T08:08:09.228Z,38.83
2019-04-27T08:10:39.188Z,34.90
2019-04-27T08:13:09.546Z,37.45
2019-04-27T08:15:39.635Z,38.58
2019-04-27T08:18:08.985Z,31.33
2019-04-27T08:20:39.060Z,39.70
2019-04-27T08:23:09.514Z,32.05
2019-04-27T08:25:39.218Z,38.35
2019-04-27T08:28:10.461Z,33.18
2019-04-27T08:30:49.405Z,34.88
2019-04-27T08:33:19.077Z,32.25
2019-04-27T08:35:49.076Z,34.75
2019-04-27T08:38:18.994Z,30.55
2019-04-27T08:43:15.342Z,30.65
2019-04-27T08:45:43.783Z,25.08
2019-04-27T08:48:12.265Z,27.20
2019-04-27T08:50:42.147Z,26.12
2019-04-27T08:53:10.705Z,24.00
2019-04-27T08:55:39.597Z,20.88
2019-04-27T08:58:09.854Z,21.00
2019-04-27T09:00:39.092Z,22.05
2019-04-27T09:03:09.339Z,20.85
2019-04-27T09:08:26.678Z,20.43
2019-04-27T09:10:56.742Z,18.80
2019-04-27T09:13:26.886Z,15.58
2019-04-27T09:16:00.115Z,17.90
2019-04-27T09:18:32.718Z,14.78
2019-04-27T09:21:02.842Z,15.73
2019-04-27T09:25:59.509Z,12.35
2019-04-27T09:28:29.469Z,11.83
2019-04-27T09:30:58.682Z,11.73
2019-04-27T09:33:27.477Z,12.20
2019-04-27T09:35:56.726Z,13.20
2019-04-27T09:38:26.451Z,12.87
2019-04-27T09:40:55.894Z,10.00
2019-04-27T09:45:55.786Z,10.77
2019-04-27T09:48:25.963Z,9.13
2019-04-27T09:50:55.980Z,11.75
2019-04-27T09:53:24.595Z,7.95
2019-04-27T09:55:53.032Z,8.70
2019-04-27T09:58:21.463Z,8.63
2019-04-27T10:00:49.885Z,9.63
2019-04-27T10:03:18.309Z,8.50
2019-04-27T10:05:46.719Z,7.33
2019-04-27T10:08:16.860Z,7.72
2019-04-27T10:10:45.993Z,6.80
2019-04-27T10:15:43.147Z,6.03
2019-04-27T10:18:11.566Z,6.50
2019-04-27T10:20:41.091Z,7.17
2019-04-27T10:23:09.812Z,8.35
2019-04-27T10:25:38.234Z,7.03
2019-04-27T10:28:07.595Z,6.60
2019-04-27T10:30:36.052Z,6.83
2019-04-27T10:33:05.995Z,7.15
2019-04-27T10:35:36.370Z,6.58
2019-04-27T10:40:32.527Z,6.15
2019-04-27T10:43:00.951Z,9.05
2019-04-27T10:45:29.381Z,9.20
2019-04-27T10:47:58.812Z,6.40
2019-04-27T10:50:27.240Z,6.47
2019-04-27T10:52:58.946Z,6.72
2019-04-27T10:55:26.266Z,5.42
2019-04-27T10:57:54.901Z,6.72
2019-04-27T11:00:28.022Z,5.17
2019-04-27T11:02:58.233Z,7.05
2019-04-27T11:05:46.480Z,5.67
2019-04-27T11:08:16.694Z,6.78
2019-04-27T11:10:46.175Z,6.70
2019-04-27T11:13:16.473Z,4.72
2019-04-27T11:15:46.093Z,5.03
2019-04-27T11:18:16.547Z,4.62
2019-04-27T11:20:46.317Z,5.87
2019-04-27T11:25:44.275Z,4.55
2019-04-27T11:28:12.794Z,5.80
2019-04-27T11:30:41.216Z,6.10
2019-04-27T11:33:09.639Z,5.10
2019-04-27T11:35:39.703Z,6.95
2019-04-27T11:40:36.442Z,9.40
2019-04-27T11:45:36.635Z,4.78
2019-04-27T11:50:35.764Z,7.33
2019-04-27T11:55:31.997Z,9.00
2019-04-27T11:58:00.414Z,4.85
2019-04-27T12:00:29.486Z,7.40
2019-04-27T12:02:57.920Z,4.85
2019-04-27T12:05:26.330Z,4.97
2019-04-27T12:07:56.084Z,6.90
2019-04-27T12:10:26.269Z,4.85
2019-04-27T12:15:26.256Z,5.72
2019-04-27T12:17:56.099Z,4.65
2019-04-27T12:20:25.807Z,5.50
2019-04-27T12:22:54.435Z,5.58
2019-04-27T12:25:22.880Z,5.47
2019-04-27T12:28:11.029Z,4.33
2019-04-27T12:30:46.664Z,4.50
2019-04-27T12:33:15.082Z,5.42
2019-04-27T12:35:43.516Z,4.27
2019-04-27T12:38:12.267Z,5.22
2019-04-27T12:40:40.824Z,4.33
2019-04-27T12:43:09.305Z,4.92
2019-04-27T12:45:41.002Z,4.60
2019-04-27T12:48:07.973Z,6.75
2019-04-27T12:50:36.380Z,4.12
2019-04-27T12:53:06.512Z,3.90
2019-04-27T12:55:51.429Z,3.98
2019-04-27T12:58:23.921Z,3.75
2019-04-27T13:00:53.993Z,3.62
2019-04-27T13:05:50.132Z,5.60
2019-04-27T13:08:18.555Z,6.90
2019-04-27T13:10:46.975Z,5.72
2019-04-27T13:13:16.389Z,4.00
2019-04-27T13:15:45.964Z,4.58
2019-04-27T13:18:14.423Z,4.53
2019-04-27T13:20:42.845Z,4.10
2019-04-27T13:23:11.650Z,4.90
2019-04-27T13:25:40.067Z,7.28
2019-04-27T13:28:08.498Z,11.48
2019-04-27T13:30:36.940Z,11.55
2019-04-27T13:33:05.390Z,9.90
2019-04-27T13:35:34.278Z,13.15
2019-04-27T13:38:02.716Z,9.83
2019-04-27T13:40:32.772Z,8.08
2019-04-27T13:43:07.613Z,8.28
2019-04-27T13:45:44.117Z,10.90
2019-04-27T13:48:29.197Z,8.13
2019-04-27T13:50:59.277Z,8.78
2019-04-27T13:53:27.708Z,7.72
2019-04-27T13:55:56.765Z,7.42
2019-04-27T13:58:25.379Z,7.70
2019-04-27T14:00:53.855Z,8.95
2019-04-27T14:03:22.277Z,7.95
2019-04-27T14:05:52.482Z,9.33
2019-04-27T14:08:20.859Z,6.37
2019-04-27T14:10:51.323Z,6.62
2019-04-27T14:13:19.785Z,6.00
2019-04-27T14:15:49.100Z,5.70
2019-04-27T14:18:18.977Z,5.70
2019-04-27T14:20:48.656Z,5.53
2019-04-27T14:23:18.964Z,5.85
2019-04-27T14:25:47.363Z,5.60
2019-04-27T14:28:15.774Z,6.03
2019-04-27T14:30:44.204Z,6.33
2019-04-27T14:33:12.630Z,6.87
2019-04-27T14:35:41.119Z,8.05
2019-04-27T14:38:09.537Z,6.90
2019-04-27T14:40:39.236Z,8.18
2019-04-27T14:43:28.619Z,6.12
2019-04-27T14:45:58.406Z,8.37
2019-04-27T14:48:26.908Z,6.95
2019-04-27T14:50:55.336Z,8.08
2019-04-27T14:53:23.771Z,7.72
2019-04-27T14:55:52.197Z,8.63
2019-04-27T14:58:20.641Z,11.03
2019-04-27T15:00:49.833Z,8.65
2019-04-27T15:03:18.683Z,8.60
2019-04-27T15:05:49.664Z,9.20
2019-04-27T15:08:17.376Z,10.93
2019-04-27T15:10:46.547Z,10.25
2019-04-27T15:13:15.288Z,10.40
2019-04-27T15:15:43.712Z,10.60
2019-04-27T15:18:13.529Z,10.35
2019-04-27T15:20:46.312Z,11.80
2019-04-27T15:23:14.112Z,11.05
2019-04-27T15:25:46.815Z,10.93
2019-04-27T15:28:20.355Z,12.25
2019-04-27T15:30:50.450Z,11.12
2019-04-27T15:33:36.796Z,11.68
2019-04-27T15:36:19.364Z,11.95
2019-04-27T15:38:51.222Z,9.75
2019-04-27T15:41:24.353Z,11.33
2019-04-27T15:43:51.793Z,12.60
2019-04-27T15:46:20.231Z,10.63
2019-04-27T15:48:48.856Z,9.68
2019-04-27T15:51:21.052Z,9.88
2019-04-27T15:53:50.701Z,9.85
2019-04-27T15:56:18.507Z,10.82
2019-04-27T15:58:48.349Z,12.00
2019-04-27T16:01:18.023Z,11.35
2019-04-27T16:03:48.211Z,10.53
2019-04-27T16:06:18.725Z,12.55
2019-04-27T16:08:49.191Z,9.90
2019-04-27T16:11:19.659Z,10.28
2019-04-27T16:13:48.803Z,11.63
2019-04-27T16:16:18.705Z,11.63
2019-04-27T16:18:49.010Z,13.83
2019-04-27T16:23:48.050Z,14.15
2019-04-27T16:26:18.344Z,12.90
2019-04-27T16:28:52.813Z,10.55
2019-04-27T16:31:18.717Z,11.55
2019-04-27T16:36:17.128Z,11.40
2019-04-27T16:38:53.291Z,11.28
2019-04-27T16:41:21.829Z,11.35
2019-04-27T16:43:50.531Z,11.15
2019-04-27T16:46:21.342Z,12.58
2019-04-27T16:51:18.320Z,14.40
2019-04-27T16:53:47.035Z,14.55
2019-04-27T16:56:18.315Z,14.53
2019-04-27T16:58:51.007Z,14.25
2019-04-27T17:01:20.242Z,13.85
2019-04-27T17:03:48.699Z,15.18
2019-04-27T17:06:21.006Z,15.70
2019-04-27T17:08:49.588Z,16.60
2019-04-27T17:11:19.624Z,16.82
2019-04-27T17:13:52.525Z,16.62
2019-04-27T17:16:32.225Z,18.17
2019-04-27T17:19:04.742Z,16.85
2019-04-27T17:21:37.426Z,18.12
2019-04-27T17:24:04.030Z,17.80
2019-04-27T17:26:35.483Z,18.42
2019-04-27T17:29:04.312Z,32.75
2019-04-27T17:31:34.395Z,25.35
2019-04-27T17:34:02.887Z,35.85
2019-04-27T17:36:31.459Z,22.00
2019-04-27T17:38:59.947Z,21.95
2019-04-27T17:41:28.475Z,28.50
2019-04-27T17:43:58.925Z,21.90
2019-04-27T17:46:28.171Z,21.15
2019-04-27T17:48:58.544Z,20.25
2019-04-27T17:51:28.541Z,18.17
2019-04-27T17:53:58.634Z,13.95
2019-04-27T17:58:58.631Z,14.63
2019-04-27T18:01:30.060Z,14.00
2019-04-27T18:06:29.469Z,14.10
2019-04-27T18:09:00.788Z,17.57
2019-04-27T18:11:28.750Z,13.95
2019-04-27T18:14:00.402Z,14.53
2019-04-27T18:16:30.512Z,12.90
2019-04-27T18:19:07.955Z,14.47
2019-04-27T18:21:33.957Z,12.88
2019-04-27T18:24:04.102Z,12.82
2019-04-27T18:26:50.033Z,12.53
2019-04-27T18:29:18.343Z,14.03
2019-04-27T18:31:53.334Z,13.50
2019-04-27T18:34:18.961Z,13.20
2019-04-27T18:36:47.306Z,15.88
2019-04-27T18:39:15.714Z,13.03
2019-04-27T18:41:48.918Z,12.65
2019-04-27T18:44:14.323Z,12.33
2019-04-27T18:46:42.764Z,12.80
2019-04-27T18:49:27.246Z,11.73
2019-04-27T18:52:08.940Z,11.30
2019-04-27T18:54:41.799Z,13.28
2019-04-27T18:57:10.657Z,12.30
2019-04-27T18:59:38.171Z,12.35
2019-04-27T19:02:08.458Z,11.30
2019-04-27T19:04:36.987Z,11.08
2019-04-27T19:07:05.434Z,14.23
2019-04-27T19:09:33.856Z,11.00
2019-04-27T19:12:02.366Z,12.63
2019-04-27T19:14:30.811Z,13.05
2019-04-27T19:16:59.428Z,14.33
2019-04-27T19:19:28.151Z,11.75
2019-04-27T19:21:58.761Z,10.08
2019-04-27T19:24:28.138Z,12.10
2019-04-27T19:26:58.814Z,10.65
2019-04-27T19:29:29.316Z,10.37
2019-04-27T19:34:28.648Z,12.67
2019-04-27T19:36:59.239Z,10.03
2019-04-27T19:39:28.617Z,9.98
2019-04-27T19:42:01.470Z,12.03
2019-04-27T19:44:29.250Z,10.78
2019-04-27T19:46:59.998Z,11.85
2019-04-27T19:49:29.437Z,12.45
2019-04-27T19:51:58.890Z,12.75
2019-04-27T19:54:28.273Z,10.00
2019-04-27T19:56:59.507Z,8.23
2019-04-27T19:59:29.761Z,9.88
2019-04-27T20:01:59.904Z,8.33
2019-04-27T20:04:32.818Z,7.35
2019-04-27T20:07:02.596Z,14.60
2019-04-27T20:09:41.365Z,10.35
2019-04-27T20:12:10.525Z,8.75
2019-04-27T20:14:57.806Z,8.37
2019-04-27T20:17:30.918Z,8.35
2019-04-27T20:19:59.876Z,7.05
2019-04-27T20:22:28.324Z,10.00
2019-04-27T20:24:56.776Z,8.28
2019-04-27T20:27:25.200Z,9.85
2019-04-27T20:29:53.735Z,11.18
2019-04-27T20:32:22.163Z,16.37
2019-04-27T20:34:51.420Z,8.53
2019-04-27T20:37:21.055Z,9.28
2019-04-27T20:39:51.462Z,13.45
2019-04-27T20:42:21.121Z,8.50
2019-04-27T20:44:51.615Z,9.88
2019-04-27T20:47:20.260Z,12.63
2019-04-27T20:49:48.697Z,14.20
2019-04-27T20:52:18.774Z,9.45
2019-04-27T20:54:47.502Z,11.63
2019-04-27T20:57:16.051Z,8.70
2019-04-27T20:59:44.472Z,11.03
2019-04-27T21:02:32.080Z,11.35
2019-04-27T21:05:05.139Z,8.43
2019-04-27T21:07:51.040Z,11.95
2019-04-27T21:10:20.451Z,6.87
2019-04-27T21:12:48.916Z,11.73
2019-04-27T21:15:17.359Z,10.82
2019-04-27T21:17:46.052Z,12.43
2019-04-27T21:20:14.950Z,11.95
2019-04-27T21:22:43.313Z,13.05
2019-04-27T21:25:12.024Z,12.85
2019-04-27T21:27:41.044Z,14.15
2019-04-27T21:30:11.384Z,16.30
2019-04-27T21:32:40.124Z,11.48
2019-04-27T21:35:10.864Z,17.62
2019-04-27T21:37:40.872Z,13.78
2019-04-27T21:40:21.360Z,12.58
2019-04-27T21:42:51.290Z,10.95
2019-04-27T21:47:51.735Z,12.35
2019-04-27T21:50:20.596Z,12.43
2019-04-27T21:53:07.099Z,14.10
2019-04-27T21:55:37.182Z,10.63
2019-04-27T21:58:05.697Z,11.38
2019-04-27T22:00:38.601Z,10.13
2019-04-27T22:03:07.040Z,11.18
2019-04-27T22:05:35.483Z,12.40
2019-04-27T22:08:04.454Z,11.40
2019-04-27T22:10:32.905Z,14.10
2019-04-27T22:13:01.974Z,11.08
2019-04-27T22:15:31.433Z,13.48
2019-04-27T22:18:00.721Z,12.15
2019-04-27T22:20:32.439Z,12.85
2019-04-27T22:23:02.661Z,13.95
2019-04-27T22:25:35.974Z,14.18
2019-04-27T22:28:04.558Z,11.18
2019-04-27T22:30:33.072Z,14.40
2019-04-27T22:33:01.699Z,11.20
2019-04-27T22:35:31.274Z,8.75
2019-04-27T22:38:01.791Z,16.60
2019-04-27T22:40:50.830Z,13.05
2019-04-27T22:43:34.019Z,12.47
2019-04-27T22:46:04.125Z,13.32
2019-04-27T22:48:33.046Z,12.35
2019-04-27T22:51:01.699Z,12.95
2019-04-27T22:53:30.635Z,11.45
2019-04-27T22:56:16.863Z,16.48
2019-04-27T22:58:58.580Z,16.32
2019-04-27T23:01:24.787Z,19.62
2019-04-27T23:03:57.413Z,14.83
2019-04-27T23:06:25.846Z,12.55
2019-04-27T23:08:54.269Z,13.83
2019-04-27T23:11:22.811Z,21.37
2019-04-27T23:13:52.799Z,13.80
2019-04-27T23:16:22.879Z,18.10
2019-04-27T23:18:51.573Z,17.30
2019-04-27T23:21:20.896Z,16.48
2019-04-27T23:23:51.609Z,17.00
2019-04-27T23:26:21.111Z,19.25
2019-04-27T23:28:51.397Z,17.52
2019-04-27T23:31:31.907Z,15.95
2019-04-27T23:34:01.880Z,20.77
2019-04-27T23:36:31.703Z,21.62
2019-04-27T23:39:00.996Z,19.70
2019-04-27T23:41:29.796Z,20.90
2019-04-27T23:43:58.370Z,21.45
2019-04-27T23:46:26.805Z,20.88
2019-04-27T23:48:55.439Z,19.73
2019-04-27T23:51:25.520Z,21.45
2019-04-27T23:53:53.945Z,26.57
2019-04-27T23:56:22.645Z,18.85
2019-04-27T23:58:51.386Z,21.12
